Time;durP1;ratioP1;P1;durP2;ratioP2;P2;SDS_P1;SDS_P2;PMS_P1;PMS_P2;Temp;Humidity;BMP_temperature;BMP_pressure;BME280_temperature;BME280_humidity;BME280_pressure;Samples;Min_cycle;Max_cycle;Signal;HPM_P1;HPM_P2
2024/04/09 00:01:01;;;;;;;15.43;14.02;;;12.90;99.90;;;;;;5386126;26;19999;-82
2024/04/09 00:03:38;;;;;;;15.25;13.93;;;12.80;99.90;;;;;;5415687;26;20022;-82
2024/04/09 00:06:14;;;;;;;15.27;14.02;;;12.80;99.90;;;;;;5415883;26;20344;-82
2024/04/09 00:08:44;;;;;;;14.82;13.63;;;12.80;99.90;;;;;;5415609;26;19996;-81
2024/04/09 00:11:21;;;;;;;14.82;13.48;;;12.70;99.90;;;;;;5399723;26;20010;-82
2024/04/09 00:13:52;;;;;;;14.65;13.35;;;12.70;99.90;;;;;;5415461;26;20000;-82
2024/04/09 00:16:22;;;;;;;14.75;13.43;;;12.70;99.90;;;;;;5415393;26;20019;-82
2024/04/09 00:18:55;;;;;;;14.07;13.07;;;12.70;99.90;;;;;;5415905;26;20013;-81
2024/04/09 00:21:22;;;;;;;14.43;13.18;;;12.70;99.90;;;;;;5399391;26;20039;-81
2024/04/09 00:23:49;;;;;;;15.30;13.82;;;12.70;99.90;;;;;;5386291;26;20014;-82
2024/04/09 00:26:16;;;;;;;14.52;13.13;;;12.60;99.90;;;;;;5415194;26;20054;-81
2024/04/09 00:28:43;;;;;;;16.98;12.88;;;12.50;99.90;;;;;;5415247;26;19999;-82
2024/04/09 00:31:10;;;;;;;13.23;12.30;;;12.50;99.90;;;;;;5404472;26;20011;-81
2024/04/09 00:33:36;;;;;;;14.23;12.82;;;12.60;99.90;;;;;;5481512;26;20003;-81
2024/04/09 00:36:03;;;;;;;14.10;12.68;;;12.60;99.90;;;;;;5450303;26;20448;-81
2024/04/09 00:38:30;;;;;;;13.40;12.30;;;12.60;99.90;;;;;;5450898;26;20049;-82
2024/04/09 00:40:57;;;;;;;13.43;12.30;;;12.60;99.90;;;;;;5435460;26;19999;-81
2024/04/09 00:43:24;;;;;;;14.57;13.10;;;12.50;99.90;;;;;;5415043;26;20017;-81
2024/04/09 00:45:51;;;;;;;12.88;11.73;;;12.60;99.90;;;;;;5414999;26;20000;-82
2024/04/09 00:48:17;;;;;;;16.20;12.95;;;12.60;99.90;;;;;;5385381;26;20014;-82
2024/04/09 00:50:45;;;;;;;13.05;11.93;;;12.50;99.90;;;;;;5397094;26;20013;-81
2024/04/09 00:53:13;;;;;;;13.15;11.95;;;12.50;99.90;;;;;;5450778;26;20009;-81
2024/04/09 00:55:42;;;;;;;12.77;11.68;;;12.50;99.90;;;;;;5480975;26;20009;-82
2024/04/09 00:58:13;;;;;;;13.27;12.18;;;12.50;99.90;;;;;;5450491;26;19999;-81
2024/04/09 01:00:40;;;;;;;13.25;12.00;;;12.50;99.90;;;;;;5439777;26;20333;-81
2024/04/09 01:03:10;;;;;;;12.95;11.85;;;12.40;99.90;;;;;;5414769;26;20289;-82
2024/04/09 01:05:38;;;;;;;13.88;12.48;;;12.30;99.90;;;;;;5414788;26;20342;-81
2024/04/09 01:08:05;;;;;;;13.48;12.13;;;12.30;99.90;;;;;;5385123;26;20010;-81
2024/04/09 01:10:31;;;;;;;13.05;11.98;;;12.30;99.90;;;;;;5422930;26;20018;-81
2024/04/09 01:13:01;;;;;;;13.07;12.00;;;12.30;99.90;;;;;;5450358;26;19998;-81
2024/04/09 01:15:30;;;;;;;13.90;12.50;;;12.30;99.90;;;;;;5442214;26;20003;-81
2024/04/09 01:17:57;;;;;;;13.05;11.77;;;12.40;99.90;;;;;;5451937;26;20451;-82
2024/04/09 01:20:23;;;;;;;15.82;11.88;;;12.30;99.90;;;;;;5444186;26;20452;-81
2024/04/09 01:22:50;;;;;;;13.80;11.75;;;12.30;99.90;;;;;;5414472;26;20012;-81
2024/04/09 01:25:17;;;;;;;13.07;11.77;;;12.30;99.90;;;;;;5384553;26;20010;-81
2024/04/09 01:27:43;;;;;;;12.93;11.65;;;12.30;99.90;;;;;;5414173;26;20055;-82
2024/04/09 01:30:12;;;;;;;13.02;11.73;;;12.30;99.90;;;;;;5446615;26;20004;-82
2024/04/09 01:32:40;;;;;;;13.10;11.65;;;12.30;99.90;;;;;;5451870;26;20075;-81
2024/04/09 01:35:07;;;;;;;12.23;11.18;;;12.30;99.90;;;;;;5449913;26;20356;-82
2024/04/09 01:37:38;;;;;;;12.80;11.70;;;12.30;99.90;;;;;;5450129;26;19999;-81
2024/04/09 01:40:04;;;;;;;13.32;12.02;;;12.30;99.90;;;;;;5449856;26;20002;-82
2024/04/09 01:42:31;;;;;;;13.90;12.40;;;12.30;99.90;;;;;;5419996;26;20014;-81
2024/04/09 01:44:57;;;;;;;14.18;12.70;;;12.20;99.90;;;;;;5419761;26;19999;-82
2024/04/09 01:47:24;;;;;;;13.45;12.07;;;12.20;99.90;;;;;;5419852;26;20325;-82
2024/04/09 01:49:50;;;;;;;14.10;11.77;;;12.20;99.90;;;;;;5423340;26;20099;-81
2024/04/09 01:52:17;;;;;;;14.70;11.50;;;12.20;99.90;;;;;;5390254;26;20014;-81
2024/04/09 01:54:50;;;;;;;13.07;11.75;;;12.10;99.90;;;;;;5387841;26;20318;-82
2024/04/09 01:57:16;;;;;;;12.70;11.70;;;12.10;99.90;;;;;;5419423;26;20003;-81
2024/04/09 01:59:42;;;;;;;12.60;11.40;;;12.10;99.90;;;;;;5453548;26;20460;-82
2024/04/09 02:02:10;;;;;;;12.77;11.57;;;12.10;99.90;;;;;;5453221;26;20003;-82
2024/04/09 02:04:37;;;;;;;12.75;11.57;;;12.00;99.90;;;;;;5453463;26;20009;-82
2024/04/09 02:07:04;;;;;;;12.93;11.82;;;11.90;99.90;;;;;;5395660;26;20000;-81
2024/04/09 02:09:31;;;;;;;16.17;11.90;;;11.80;99.90;;;;;;5452508;26;20009;-82
2024/04/09 02:11:58;;;;;;;14.02;11.88;;;11.80;99.90;;;;;;5417074;26;20004;-82
2024/04/09 02:14:24;;;;;;;13.05;11.80;;;11.80;99.90;;;;;;5417192;26;19995;-81
2024/04/09 02:16:50;;;;;;;12.48;11.38;;;11.70;99.90;;;;;;5423104;26;20013;-82
2024/04/09 02:19:17;;;;;;;12.93;11.57;;;11.70;99.90;;;;;;5447309;26;20002;-82
2024/04/09 02:21:43;;;;;;;13.32;11.93;;;11.60;99.90;;;;;;5435390;26;20372;-82
2024/04/09 02:24:09;;;;;;;12.07;11.20;;;11.60;99.90;;;;;;5416859;26;20004;-81
2024/04/09 02:26:36;;;;;;;12.82;11.57;;;11.60;99.90;;;;;;5407149;26;19999;-81
2024/04/09 02:29:03;;;;;;;12.10;11.20;;;11.50;99.90;;;;;;5454391;26;19999;-81
2024/04/09 02:31:29;;;;;;;12.55;11.23;;;11.60;99.90;;;;;;5422645;26;20444;-82
2024/04/09 02:33:55;;;;;;;13.02;11.70;;;11.60;99.90;;;;;;5422891;26;20014;-81
2024/04/09 02:36:22;;;;;;;12.80;11.50;;;11.50;99.90;;;;;;5387696;26;20449;-82
2024/04/09 02:38:48;;;;;;;12.52;11.50;;;11.50;99.90;;;;;;5416645;26;20080;-82
2024/04/09 02:41:16;;;;;;;12.60;11.40;;;11.50;99.90;;;;;;5433318;26;20015;-81
2024/04/09 02:43:43;;;;;;;12.27;11.18;;;11.40;99.90;;;;;;5452729;26;20074;-82
2024/04/09 02:46:09;;;;;;;12.88;11.60;;;11.40;99.90;;;;;;5422376;26;20009;-82
2024/04/09 02:48:36;;;;;;;14.68;11.60;;;11.30;99.90;;;;;;5452566;26;19998;-82
2024/04/09 02:51:03;;;;;;;12.05;11.15;;;11.30;99.90;;;;;;5409494;26;20487;-82
2024/04/09 02:53:35;;;;;;;12.75;11.65;;;11.30;99.90;;;;;;5418363;26;20546;-82
2024/04/09 02:56:07;;;;;;;11.93;10.80;;;11.30;99.90;;;;;;5446175;26;20006;-82
2024/04/09 02:58:35;;;;;;;11.85;10.77;;;11.30;99.90;;;;;;5453876;26;20003;-82
2024/04/09 03:01:08;;;;;;;12.20;11.07;;;11.30;99.90;;;;;;5452219;26;20456;-81
2024/04/09 03:03:36;;;;;;;12.45;10.70;;;11.20;99.90;;;;;;5452645;26;20521;-81
2024/04/09 03:06:11;;;;;;;12.27;11.18;;;11.30;99.90;;;;;;5451809;26;20073;-81
2024/04/09 03:08:39;;;;;;;11.55;10.68;;;11.20;99.90;;;;;;5452587;26;20073;-81
2024/04/09 03:11:16;;;;;;;13.65;11.38;;;11.20;99.90;;;;;;5454059;26;20100;-81
2024/04/09 03:13:45;;;;;;;11.95;11.00;;;11.10;99.90;;;;;;5446188;26;19995;-81
2024/04/09 03:16:18;;;;;;;12.18;11.02;;;11.10;99.90;;;;;;5422304;26;19999;-81
2024/04/09 03:18:45;;;;;;;11.88;10.77;;;11.10;99.90;;;;;;5422307;26;20010;-81
2024/04/09 03:21:13;;;;;;;11.60;10.60;;;11.10;99.90;;;;;;5421655;26;20003;-81
2024/04/09 03:23:40;;;;;;;11.65;10.45;;;11.00;99.90;;;;;;5452388;26;20022;-81
2024/04/09 03:26:11;;;;;;;11.98;10.88;;;11.10;99.90;;;;;;5458295;26;20010;-81
2024/04/09 03:28:38;;;;;;;11.45;10.43;;;11.00;99.90;;;;;;5458289;26;20459;-81
2024/04/09 03:31:06;;;;;;;11.65;10.32;;;11.00;99.90;;;;;;5445044;26;20015;-80
2024/04/09 03:33:33;;;;;;;11.32;10.43;;;11.00;99.90;;;;;;5453590;26;20027;-79
2024/04/09 03:36:01;;;;;;;12.32;10.88;;;11.00;99.90;;;;;;5480859;26;19994;-80
2024/04/09 03:38:28;;;;;;;13.27;10.40;;;11.10;99.90;;;;;;5457822;26;20006;-79
2024/04/09 03:41:03;;;;;;;11.05;10.10;;;11.10;99.90;;;;;;5421744;26;20003;-79
2024/04/09 03:43:29;;;;;;;14.23;10.40;;;11.10;99.90;;;;;;5451955;26;20014;-79
2024/04/09 03:46:06;;;;;;;12.20;10.10;;;11.10;99.90;;;;;;5479186;26;19994;-79
2024/04/09 03:48:49;;;;;;;12.30;9.90;;;11.10;99.90;;;;;;5457833;26;20514;-78
2024/04/09 03:51:19;;;;;;;11.48;10.10;;;11.10;99.90;;;;;;5457669;26;20002;-79
2024/04/09 03:53:46;;;;;;;10.90;9.93;;;11.10;99.90;;;;;;5488307;26;19998;-80
2024/04/09 03:56:13;;;;;;;11.43;10.30;;;11.10;99.90;;;;;;5460643;26;19998;-79
2024/04/09 03:58:41;;;;;;;10.88;9.95;;;11.10;99.90;;;;;;5422023;26;20002;-77
2024/04/09 04:01:08;;;;;;;12.02;10.77;;;11.10;99.90;;;;;;5434063;26;20014;-79
2024/04/09 04:03:36;;;;;;;11.30;10.40;;;11.00;99.90;;;;;;5489704;26;20006;-79
2024/04/09 04:06:03;;;;;;;11.52;10.35;;;11.10;99.90;;;;;;5489454;26;19994;-80
2024/04/09 04:08:30;;;;;;;12.05;10.73;;;11.00;99.90;;;;;;5489768;26;20006;-80
2024/04/09 04:11:01;;;;;;;10.90;9.93;;;11.00;99.90;;;;;;5456200;26;20066;-80
2024/04/09 04:13:31;;;;;;;11.68;10.18;;;11.00;99.90;;;;;;5489724;26;20561;-80
2024/04/09 04:16:05;;;;;;;11.48;10.68;;;11.00;99.90;;;;;;5457047;26;20005;-80
2024/04/09 04:18:32;;;;;;;12.13;10.98;;;11.00;99.90;;;;;;5489506;26;20381;-80
2024/04/09 04:20:59;;;;;;;11.82;10.75;;;10.90;99.90;;;;;;5489335;26;20006;-80
2024/04/09 04:23:25;;;;;;;12.23;11.32;;;10.80;99.90;;;;;;5488870;26;20070;-80
2024/04/09 04:26:03;;;;;;;13.30;11.52;;;10.90;99.90;;;;;;5451108;26;20014;-80
2024/04/09 04:28:35;;;;;;;12.20;10.93;;;10.80;99.90;;;;;;5436191;26;20003;-80
2024/04/09 04:31:06;;;;;;;12.40;11.40;;;10.80;99.90;;;;;;5426848;26;20006;-80
2024/04/09 04:33:33;;;;;;;13.02;11.68;;;10.80;99.90;;;;;;5451837;26;19999;-80
2024/04/09 04:36:00;;;;;;;16.52;11.77;;;10.80;99.90;;;;;;5450766;26;20009;-80
2024/04/09 04:38:26;;;;;;;13.48;11.50;;;10.80;99.90;;;;;;5452217;26;19998;-80
2024/04/09 04:40:53;;;;;;;12.23;11.18;;;10.90;99.90;;;;;;5452062;26;20075;-80
2024/04/09 04:43:19;;;;;;;12.20;11.30;;;11.00;99.90;;;;;;5419720;26;20016;-81
2024/04/09 04:45:47;;;;;;;12.80;11.68;;;11.00;99.90;;;;;;5451956;26;20070;-80
2024/04/09 04:48:13;;;;;;;13.57;11.48;;;11.00;99.90;;;;;;5452036;26;20456;-80
2024/04/09 04:50:40;;;;;;;14.60;12.30;;;11.10;99.90;;;;;;5449861;26;19995;-80
2024/04/09 04:53:07;;;;;;;13.32;11.93;;;11.20;99.90;;;;;;5450117;26;20010;-80
2024/04/09 04:55:33;;;;;;;13.52;12.18;;;11.20;99.90;;;;;;5414162;26;19999;-80
2024/04/09 04:58:01;;;;;;;14.13;12.73;;;11.30;99.90;;;;;;5444032;26;20003;-80
2024/04/09 05:00:28;;;;;;;14.38;12.75;;;11.30;99.90;;;;;;5416723;26;20000;-80
2024/04/09 05:02:55;;;;;;;13.93;12.50;;;11.40;99.90;;;;;;5420029;26;19999;-80
2024/04/09 05:05:22;;;;;;;12.93;11.63;;;11.60;99.90;;;;;;5449102;26;19995;-80
2024/04/09 05:07:49;;;;;;;12.13;10.93;;;12.30;99.90;;;;;;5450503;26;20003;-80
2024/04/09 05:10:21;;;;;;;11.77;10.52;;;13.50;99.90;;;;;;5449225;26;20081;-81
2024/04/09 05:12:52;;;;;;;15.63;14.23;;;14.50;99.90;;;;;;5416721;26;20084;-81
2024/04/09 05:15:20;;;;;;;20.45;16.33;;;15.60;99.90;;;;;;5444064;26;20064;-81
2024/04/09 05:17:47;;;;;;;23.25;20.90;;;16.40;99.90;;;;;;5452118;26;20012;-81
2024/04/09 05:20:16;;;;;;;26.00;23.70;;;17.20;99.90;;;;;;5449725;26;20011;-81
2024/04/09 05:22:45;;;;;;;29.70;26.98;;;17.90;99.90;;;;;;5453785;26;20005;-83
2024/04/09 05:25:14;;;;;;;33.28;30.48;;;18.50;99.90;;;;;;5449773;26;20006;-81
2024/04/09 05:27:42;;;;;;;35.65;32.10;;;19.20;99.90;;;;;;5450709;26;20007;-82
2024/04/09 05:30:10;;;;;;;37.00;33.63;;;19.60;99.90;;;;;;5452950;26;20009;-82
2024/04/09 05:32:43;;;;;;;38.25;34.35;;;20.10;99.90;;;;;;5421256;26;20006;-82
2024/04/09 05:35:11;;;;;;;38.63;34.80;;;20.30;99.90;;;;;;5418640;26;20463;-82
2024/04/09 05:37:38;;;;;;;35.05;31.63;;;20.60;99.90;;;;;;5387759;26;20031;-81
2024/04/09 05:40:09;;;;;;;34.60;31.60;;;21.00;99.90;;;;;;5418046;26;20000;-80
2024/04/09 05:42:46;;;;;;;32.13;29.55;;;21.20;99.90;;;;;;5449013;26;20071;-82
2024/04/09 05:45:21;;;;;;;32.75;30.00;;;21.40;99.90;;;;;;5455247;26;20352;-81
2024/04/09 05:47:47;;;;;;;;;;;21.70;99.90;;;;;;5454065;26;20006;-81
2024/04/09 05:50:14;;;;;;;33.08;30.30;;;22.00;99.90;;;;;;5453289;26;19924;-82
2024/04/09 05:52:41;;;;;;;33.58;30.38;;;22.50;99.90;;;;;;5420820;26;20008;-82
2024/04/09 05:55:08;;;;;;;33.60;30.42;;;22.60;99.90;;;;;;5387934;26;20072;-82
2024/04/09 05:57:38;;;;;;;33.85;30.95;;;22.60;99.90;;;;;;5419178;26;20018;-82
2024/04/09 06:00:07;;;;;;;33.72;30.65;;;22.90;99.90;;;;;;5419228;26;20084;-83
2024/04/09 06:02:38;;;;;;;33.95;30.73;;;22.50;99.90;;;;;;5450837;26;20014;-84
2024/04/09 06:05:05;;;;;;;34.45;29.90;;;22.60;99.90;;;;;;5423259;26;20015;-83
2024/04/09 06:07:31;;;;;;;33.88;30.70;;;22.70;99.90;;;;;;5453374;26;20462;-83
2024/04/09 06:09:59;;;;;;;33.58;30.63;;;23.10;99.90;;;;;;5453306;26;20043;-84
2024/04/09 06:12:25;;;;;;;32.88;30.27;;;23.30;99.90;;;;;;5449189;26;20455;-83
2024/04/09 06:14:53;;;;;;;31.75;28.80;;;23.50;99.90;;;;;;5417524;26;20464;-83
2024/04/09 06:17:23;;;;;;;32.58;29.60;;;23.70;99.90;;;;;;5387537;26;20117;-83
2024/04/09 06:19:50;;;;;;;31.10;28.90;;;23.90;99.90;;;;;;5418981;26;20073;-83
2024/04/09 06:22:17;;;;;;;31.65;29.25;;;23.80;99.90;;;;;;5387456;26;20036;-83
2024/04/09 06:24:48;;;;;;;31.80;29.40;;;23.80;99.90;;;;;;5434843;26;20014;-82
2024/04/09 06:27:14;;;;;;;31.45;29.17;;;24.00;99.90;;;;;;5459455;26;20009;-82
2024/04/09 06:29:41;;;;;;;32.35;30.00;;;24.30;99.90;;;;;;5454849;26;20467;-83
2024/04/09 06:32:08;;;;;;;31.33;29.10;;;24.20;99.90;;;;;;5416243;26;20095;-83
2024/04/09 06:34:34;;;;;;;32.10;29.40;;;24.40;99.90;;;;;;5490170;26;20006;-82
2024/04/09 06:37:01;;;;;;;31.92;29.65;;;24.70;99.90;;;;;;5488843;26;20002;-83
2024/04/09 06:39:28;;;;;;;33.15;30.63;;;25.20;99.90;;;;;;5489307;26;19998;-83
2024/04/09 06:41:55;;;;;;;33.85;31.15;;;24.90;99.90;;;;;;5490817;26;20009;-82
2024/04/09 06:44:23;;;;;;;33.80;31.52;;;24.90;99.90;;;;;;5490907;26;20334;-82
2024/04/09 06:46:50;;;;;;;34.22;31.67;;;25.30;99.90;;;;;;5458573;26;20468;-82
2024/04/09 06:49:16;;;;;;;33.95;31.55;;;25.90;99.90;;;;;;5490800;26;20009;-83
2024/04/09 06:51:43;;;;;;;33.63;31.33;;;25.80;99.90;;;;;;5442024;26;20002;-83
2024/04/09 06:54:10;;;;;;;34.97;32.45;;;25.80;99.90;;;;;;5422535;26;20449;-83
2024/04/09 06:56:36;;;;;;;35.05;32.45;;;25.40;99.90;;;;;;5454524;26;20018;-82
2024/04/09 06:59:03;;;;;;;35.45;32.95;;;25.30;99.90;;;;;;5454193;26;20508;-82
2024/04/09 07:01:29;;;;;;;35.03;32.50;;;25.80;99.90;;;;;;5467253;26;20002;-83
2024/04/09 07:03:57;;;;;;;36.35;33.45;;;25.70;99.90;;;;;;5445944;26;20067;-83
2024/04/09 07:06:23;;;;;;;34.55;32.08;;;25.70;99.90;;;;;;5422640;26;20034;-82
2024/04/09 07:08:50;;;;;;;35.05;32.40;;;25.30;99.90;;;;;;5423074;26;20071;-82
2024/04/09 07:11:17;;;;;;;35.20;32.83;;;25.10;99.90;;;;;;5431644;26;20002;-86
2024/04/09 07:13:44;;;;;;;35.15;32.75;;;25.00;99.90;;;;;;5489286;26;20002;-83
2024/04/09 07:16:10;;;;;;;35.90;33.22;;;25.50;99.90;;;;;;5458160;26;20002;-83
2024/04/09 07:18:37;;;;;;;34.67;32.28;;;26.20;99.90;;;;;;5458618;26;20030;-80
2024/04/09 07:21:03;;;;;;;35.88;33.10;;;26.30;99.90;;;;;;5484496;26;20003;-83
2024/04/09 07:23:30;;;;;;;35.30;32.63;;;26.60;99.90;;;;;;5454074;26;20003;-83
2024/04/09 07:25:56;;;;;;;34.30;31.92;;;26.60;99.90;;;;;;5422451;26;20422;-83
2024/04/09 07:28:26;;;;;;;34.83;32.53;;;26.60;99.90;;;;;;5454461;26;20011;-82
2024/04/09 07:30:52;;;;;;;35.50;33.00;;;26.70;99.90;;;;;;5457021;26;20074;-80
2024/04/09 07:33:19;;;;;;;36.47;33.92;;;27.10;99.90;;;;;;5488369;26;20006;-80
2024/04/09 07:35:45;;;;;;;36.30;33.97;;;27.40;99.90;;;;;;5488690;26;20002;-80
2024/04/09 07:38:12;;;;;;;36.25;33.85;;;27.60;99.90;;;;;;5458514;26;20010;-80
2024/04/09 07:40:41;;;;;;;36.95;34.35;;;28.00;99.90;;;;;;5490465;26;20002;-80
2024/04/09 07:43:08;;;;;;;35.90;33.47;;;27.90;99.90;;;;;;5422017;26;20003;-80
2024/04/09 07:45:34;;;;;;;36.13;33.72;;;27.90;99.90;;;;;;5452175;26;20003;-80
2024/04/09 07:48:01;;;;;;;35.90;33.70;;;27.90;99.90;;;;;;5454074;26;19999;-80
2024/04/09 07:50:28;;;;;;;35.92;33.63;;;27.70;99.50;;;;;;5392509;26;19995;-80
2024/04/09 07:52:54;;;;;;;35.92;33.60;;;27.80;99.60;;;;;;5453868;26;20002;-81
2024/04/09 07:55:20;;;;;;;35.72;33.42;;;28.20;99.70;;;;;;5454204;26;19999;-86
2024/04/09 07:57:47;;;;;;;36.55;34.20;;;28.20;98.20;;;;;;5393214;26;20014;-85
2024/04/09 08:00:14;;;;;;;37.20;34.72;;;28.00;98.90;;;;;;5454604;26;20007;-86
2024/04/09 08:02:42;;;;;;;36.08;33.78;;;27.80;98.40;;;;;;5422545;26;19999;-85
2024/04/09 08:05:09;;;;;;;38.20;35.45;;;27.90;98.20;;;;;;5454294;26;20448;-82
2024/04/09 08:07:39;;;;;;;37.35;34.78;;;28.10;98.30;;;;;;5429558;26;20003;-82
2024/04/09 08:10:11;;;;;;;38.10;35.45;;;28.10;97.60;;;;;;5401245;26;20011;-82
2024/04/09 08:12:40;;;;;;;39.63;37.15;;;28.10;97.10;;;;;;5422794;26;20010;-82
2024/04/09 08:15:08;;;;;;;39.47;37.03;;;28.00;96.50;;;;;;5457548;26;20002;-82
2024/04/09 08:17:38;;;;;;;39.13;36.53;;;27.80;96.20;;;;;;5427467;26;20042;-82
2024/04/09 08:20:07;;;;;;;39.35;36.95;;;27.90;96.20;;;;;;5490410;26;20027;-84
2024/04/09 08:22:35;;;;;;;41.08;38.05;;;28.10;95.90;;;;;;5436458;26;19999;-85
2024/04/09 08:25:01;;;;;;;38.67;36.38;;;28.20;95.90;;;;;;5456014;26;20462;-83
2024/04/09 08:27:28;;;;;;;39.92;37.50;;;28.40;95.60;;;;;;5424851;26;20344;-81
2024/04/09 08:29:54;;;;;;;40.80;37.90;;;28.60;94.90;;;;;;5421238;26;19998;-80
2024/04/09 08:32:20;;;;;;;40.35;37.75;;;28.90;94.60;;;;;;5476001;26;20010;-80
2024/04/09 08:34:48;;;;;;;39.88;37.38;;;29.10;94.50;;;;;;5489116;26;20013;-80
2024/04/09 08:37:15;;;;;;;39.40;37.10;;;29.10;93.40;;;;;;5441557;26;20401;-81
2024/04/09 08:39:41;;;;;;;39.25;36.85;;;29.30;93.30;;;;;;5452746;26;20014;-81
2024/04/09 08:42:08;;;;;;;39.50;36.95;;;29.30;92.80;;;;;;5440633;26;20010;-80
2024/04/09 08:44:37;;;;;;;39.05;36.55;;;29.10;92.30;;;;;;5489039;26;20008;-80
2024/04/09 08:47:05;;;;;;;38.35;35.95;;;29.10;92.50;;;;;;5456976;26;20013;-80
2024/04/09 08:49:32;;;;;;;39.25;36.40;;;28.50;93.50;;;;;;5456819;26;19998;-79
2024/04/09 08:51:59;;;;;;;38.10;35.72;;;28.50;92.80;;;;;;5439546;26;20388;-79
2024/04/09 08:54:28;;;;;;;37.90;35.58;;;28.00;93.50;;;;;;5452491;26;20003;-80
2024/04/09 08:56:56;;;;;;;38.65;36.25;;;28.30;92.60;;;;;;5421491;26;20467;-80
2024/04/09 08:59:22;;;;;;;38.10;35.70;;;28.40;91.70;;;;;;5456060;26;20003;-80
2024/04/09 09:02:40;;;;;;;39.13;36.85;;;27.90;92.20;;;;;;5469231;26;20006;-79
2024/04/09 09:05:22;;;;;;;39.70;37.08;;;28.00;91.90;;;;;;5431322;26;20016;-80
2024/04/09 09:08:04;;;;;;;40.60;38.00;;;28.00;91.90;;;;;;5460648;26;20042;-80
2024/04/09 09:10:31;;;;;;;40.40;38.00;;;27.80;91.90;;;;;;5460208;26;20010;-80
2024/04/09 09:12:59;;;;;;;40.25;37.55;;;28.10;92.00;;;;;;5423851;26;20017;-80
2024/04/09 09:15:26;;;;;;;40.28;37.78;;;28.00;91.40;;;;;;5423872;26;19999;-80
2024/04/09 09:17:52;;;;;;;41.20;38.53;;;28.00;91.70;;;;;;5455796;26;20075;-80
2024/04/09 09:20:23;;;;;;;41.28;38.58;;;28.10;90.90;;;;;;5423974;26;20436;-80
2024/04/09 09:22:51;;;;;;;40.88;38.38;;;27.90;91.30;;;;;;5459936;26;19998;-79
2024/04/09 09:25:26;;;;;;;41.17;38.55;;;27.70;91.10;;;;;;5454047;26;20014;-79
2024/04/09 09:28:10;;;;;;;40.63;38.13;;;27.70;91.50;;;;;;5453531;26;19998;-79
2024/04/09 09:30:42;;;;;;;41.13;38.63;;;27.50;91.20;;;;;;5433608;26;20020;-80
2024/04/09 09:33:43;;;;;;;41.05;38.55;;;27.50;91.00;;;;;;5451118;26;20027;-80
2024/04/09 09:36:09;;;;;;;41.90;39.42;;;27.70;91.00;;;;;;5334279;26;20066;-80
2024/04/09 09:38:37;;;;;;;41.78;39.22;;;27.40;89.60;;;;;;5453195;26;19991;-80
2024/04/09 09:41:10;;;;;;;41.53;38.88;;;27.80;89.20;;;;;;5421488;26;19991;-80
2024/04/09 09:43:38;;;;;;;41.30;38.85;;;27.90;88.90;;;;;;5417555;26;19999;-80
2024/04/09 09:46:08;;;;;;;41.45;39.05;;;27.80;88.80;;;;;;5424744;26;20031;-80
2024/04/09 09:48:37;;;;;;;41.15;38.63;;;27.80;88.40;;;;;;5419370;26;20006;-81
2024/04/09 09:51:04;;;;;;;41.53;38.83;;;27.60;89.70;;;;;;5389567;26;20070;-80
2024/04/09 09:53:31;;;;;;;40.90;38.40;;;27.80;88.90;;;;;;5455039;26;20031;-81
2024/04/09 09:56:02;;;;;;;41.42;38.83;;;27.80;88.40;;;;;;5454731;26;20448;-80
2024/04/09 09:58:32;;;;;;;41.03;38.53;;;28.00;86.90;;;;;;5453113;26;20336;-80
2024/04/09 10:01:04;;;;;;;40.78;38.30;;;28.10;86.90;;;;;;5455103;26;20010;-80
2024/04/09 10:03:31;;;;;;;40.72;38.33;;;28.30;86.00;;;;;;5419103;26;20005;-80
2024/04/09 10:05:59;;;;;;;41.28;38.63;;;28.20;84.90;;;;;;5387721;26;20011;-81
2024/04/09 10:08:29;;;;;;;41.42;38.92;;;28.10;86.50;;;;;;5418966;26;20403;-80
2024/04/09 10:10:55;;;;;;;41.17;38.45;;;28.20;87.00;;;;;;5454855;26;19998;-80
2024/04/09 10:13:25;;;;;;;41.00;38.60;;;28.10;84.60;;;;;;5454807;26;20043;-80
2024/04/09 10:16:00;;;;;;;40.75;38.25;;;27.80;81.80;;;;;;5423121;26;20002;-80
2024/04/09 10:18:38;;;;;;;40.70;38.20;;;27.80;84.50;;;;;;5454449;26;20013;-80
2024/04/09 10:21:05;;;;;;;40.90;38.00;;;27.80;84.50;;;;;;5454870;26;20460;-80
2024/04/09 10:23:39;;;;;;;42.28;39.53;;;27.90;84.70;;;;;;5453131;26;20003;-80
2024/04/09 10:26:06;;;;;;;40.90;38.50;;;27.80;83.10;;;;;;5483673;26;20448;-80
2024/04/09 10:28:35;;;;;;;41.50;38.80;;;27.60;84.50;;;;;;5452696;26;20009;-80
2024/04/09 10:31:06;;;;;;;42.05;39.45;;;27.70;84.90;;;;;;5454662;26;20022;-80
2024/04/09 10:33:34;;;;;;;40.70;38.30;;;27.80;85.40;;;;;;5481515;26;20067;-80
2024/04/09 10:36:08;;;;;;;41.22;38.70;;;27.70;82.80;;;;;;5421645;26;20480;-80
2024/04/09 10:38:41;;;;;;;41.75;39.05;;;27.80;83.00;;;;;;5418471;26;20007;-80
2024/04/09 10:41:08;;;;;;;41.25;38.55;;;27.70;83.70;;;;;;5454540;26;20006;-80
2024/04/09 10:43:35;;;;;;;40.97;38.28;;;27.90;83.40;;;;;;5422509;26;20002;-80
2024/04/09 10:46:02;;;;;;;40.47;38.08;;;28.00;83.10;;;;;;5454326;26;20010;-80
2024/04/09 10:48:28;;;;;;;41.30;38.70;;;27.80;81.60;;;;;;5454442;26;20048;-80
2024/04/09 10:50:55;;;;;;;40.85;38.30;;;27.40;80.90;;;;;;5447281;26;20027;-80
2024/04/09 10:53:22;;;;;;;40.95;38.47;;;27.10;82.80;;;;;;5452591;26;20014;-80
2024/04/09 10:55:48;;;;;;;41.25;38.63;;;27.30;81.40;;;;;;5454292;26;20017;-80
2024/04/09 10:58:17;;;;;;;39.70;37.30;;;27.40;81.20;;;;;;5452690;26;20083;-80
2024/04/09 11:00:57;;;;;;;39.85;37.45;;;27.60;81.60;;;;;;5452311;26;19994;-80
2024/04/09 11:03:24;;;;;;;40.30;37.88;;;27.50;81.10;;;;;;5432879;26;20004;-80
2024/04/09 11:05:51;;;;;;;40.45;38.10;;;27.50;81.00;;;;;;5450183;26;20003;-80
2024/04/09 11:08:28;;;;;;;40.35;37.95;;;27.40;81.40;;;;;;5454238;26;20014;-80
2024/04/09 11:10:56;;;;;;;40.72;38.33;;;27.30;80.60;;;;;;5417424;26;20010;-80
2024/04/09 11:13:23;;;;;;;42.25;39.45;;;27.20;80.00;;;;;;5450121;26;20425;-80
2024/04/09 11:15:49;;;;;;;41.28;38.67;;;27.30;80.40;;;;;;5453961;26;20079;-80
2024/04/09 11:18:20;;;;;;;42.45;39.55;;;27.20;81.80;;;;;;5451215;26;20005;-80
2024/04/09 11:20:55;;;;;;;40.20;37.75;;;27.10;82.30;;;;;;5429858;26;19999;-80
2024/04/09 11:23:23;;;;;;;41.08;38.50;;;27.00;81.30;;;;;;5451136;26;20003;-80
2024/04/09 11:25:54;;;;;;;41.70;39.10;;;27.00;82.10;;;;;;5486261;26;20001;-80
2024/04/09 11:28:21;;;;;;;41.40;38.55;;;27.00;82.70;;;;;;5490328;26;20001;-80
2024/04/09 11:30:55;;;;;;;41.35;38.75;;;27.00;82.90;;;;;;5489743;26;19996;-80
2024/04/09 11:33:22;;;;;;;41.00;37.95;;;27.10;83.00;;;;;;5489678;26;20006;-80
2024/04/09 11:35:53;;;;;;;41.25;38.83;;;27.10;82.40;;;;;;5427968;26;20554;-80
2024/04/09 11:38:20;;;;;;;41.65;39.03;;;27.20;82.80;;;;;;5457972;26;20002;-80
2024/04/09 11:40:47;;;;;;;40.75;38.35;;;27.10;82.50;;;;;;5458026;26;20009;-81
2024/04/09 11:43:13;;;;;;;40.75;38.35;;;27.10;81.30;;;;;;5457214;26;20440;-81
2024/04/09 11:45:40;;;;;;;40.30;37.67;;;27.00;81.30;;;;;;5457862;26;19998;-82
2024/04/09 11:48:07;;;;;;;40.75;38.20;;;27.00;83.70;;;;;;5489802;26;20102;-81
2024/04/09 11:50:34;;;;;;;40.60;38.00;;;27.10;84.70;;;;;;5489940;26;20002;-80
2024/04/09 11:53:02;;;;;;;40.63;38.13;;;27.00;83.50;;;;;;5484859;26;20430;-81
2024/04/09 11:55:29;;;;;;;40.05;37.55;;;27.10;84.80;;;;;;5457539;26;20010;-81
2024/04/09 11:57:55;;;;;;;40.70;37.97;;;27.20;83.30;;;;;;5489738;26;20002;-81
2024/04/09 12:00:22;;;;;;;40.42;37.83;;;27.20;83.50;;;;;;5457243;26;20002;-80
2024/04/09 12:02:49;;;;;;;41.15;38.53;;;26.80;83.00;;;;;;5452342;26;19998;-81
2024/04/09 12:05:16;;;;;;;40.00;37.60;;;26.90;83.30;;;;;;5489721;26;19998;-81
2024/04/09 12:07:44;;;;;;;39.80;37.30;;;26.90;82.80;;;;;;5457737;26;20002;-81
2024/04/09 12:10:11;;;;;;;40.28;37.70;;;26.90;84.30;;;;;;5402462;26;19994;-84
2024/04/09 12:12:41;;;;;;;40.38;37.88;;;27.00;84.20;;;;;;5456011;26;19997;-82
2024/04/09 12:15:10;;;;;;;40.40;37.95;;;27.00;83.10;;;;;;5427076;26;19998;-82
2024/04/09 12:17:37;;;;;;;41.47;38.30;;;27.00;82.90;;;;;;5488639;26;20002;-82
2024/04/09 12:20:03;;;;;;;40.40;37.60;;;27.10;84.40;;;;;;5489264;26;20523;-84
2024/04/09 12:22:30;;;;;;;39.65;37.20;;;27.10;83.70;;;;;;5438489;26;20003;-81
2024/04/09 12:24:57;;;;;;;40.35;37.58;;;27.00;84.50;;;;;;5455135;26;20042;-80
2024/04/09 12:27:23;;;;;;;40.05;37.42;;;27.10;84.30;;;;;;5453148;26;20003;-81
2024/04/09 12:29:50;;;;;;;40.85;38.35;;;27.00;84.60;;;;;;5453007;26;20023;-82
2024/04/09 12:32:16;;;;;;;39.85;37.40;;;27.10;82.50;;;;;;5467323;26;20021;-83
2024/04/09 12:34:43;;;;;;;40.22;37.55;;;27.00;82.00;;;;;;5457162;26;20335;-82